sensor_id;sensor_type;location;lat;lon;timestamp;pressure;altitude;pressure_sealevel;temperature;humidity
28630;BME280;15817;42.130;24.762;2023-03-23T00:35:57;99877.56;;;10.72;100.00
28630;BME280;15817;42.130;24.762;2023-03-23T00:43:21;99863.47;;;10.59;100.00
28630;BME280;15817;42.130;24.762;2023-03-23T01:26:53;99852.91;;;10.42;100.00
28630;BME280;15817;42.130;24.762;2023-03-23T01:30:08;99851.16;;;10.40;100.00
28630;BME280;15817;42.130;24.762;2023-03-23T02:50:55;99880.50;;;10.12;100.00
28630;BME280;15817;42.130;24.762;2023-03-23T03:36:36;99911.53;;;9.92;100.00
28630;BME280;15817;42.130;24.762;2023-03-23T03:42:07;99910.69;;;9.87;100.00
28630;BME280;15817;42.130;24.762;2023-03-23T03:51:54;99908.03;;;9.82;100.00
28630;BME280;15817;42.130;24.762;2023-03-23T03:54:43;99908.03;;;9.86;100.00
28630;BME280;15817;42.130;24.762;2023-03-23T03:57:21;99916.00;;;9.86;100.00
28630;BME280;15817;42.130;24.762;2023-03-23T04:00:04;99912.47;;;9.84;100.00
28630;BME280;15817;42.130;24.762;2023-03-23T04:02:48;99909.81;;;9.84;100.00
28630;BME280;15817;42.130;24.762;2023-03-23T04:05:42;99899.22;;;9.80;100.00
28630;BME280;15817;42.130;24.762;2023-03-23T04:12:44;99916.00;;;9.82;100.00
28630;BME280;15817;42.130;24.762;2023-03-23T04:15:48;99908.06;;;9.79;100.00
28630;BME280;15817;42.130;24.762;2023-03-23T04:18:16;99916.00;;;9.82;100.00
28630;BME280;15817;42.130;24.762;2023-03-23T04:20:48;99912.50;;;9.76;100.00
28630;BME280;15817;42.130;24.762;2023-03-23T04:23:19;99928.41;;;9.82;100.00
28630;BME280;15817;42.130;24.762;2023-03-23T04:26:03;99919.56;;;9.78;100.00
28630;BME280;15817;42.130;24.762;2023-03-23T04:28:58;99916.03;;;9.72;100.00
28630;BME280;15817;42.130;24.762;2023-03-23T04:31:59;99923.09;;;9.71;100.00
28630;BME280;15817;42.130;24.762;2023-03-23T04:34:36;99923.09;;;9.71;100.00
28630;BME280;15817;42.130;24.762;2023-03-23T04:37:04;99921.38;;;9.69;100.00
28630;BME280;15817;42.130;24.762;2023-03-23T04:39:32;99913.41;;;9.67;100.00
28630;BME280;15817;42.130;24.762;2023-03-23T04:42:03;99931.94;;;9.70;100.00
28630;BME280;15817;42.130;24.762;2023-03-23T04:45:09;99922.25;;;9.66;100.00
28630;BME280;15817;42.130;24.762;2023-03-23T04:47:38;99922.25;;;9.63;100.00
28630;BME280;15817;42.130;24.762;2023-03-23T04:50:21;99930.22;;;9.63;100.00
28630;BME280;15817;42.130;24.762;2023-03-23T04:53:00;99937.28;;;9.70;100.00
28630;BME280;15817;42.130;24.762;2023-03-23T04:55:36;99918.69;;;9.64;100.00
28630;BME280;15817;42.130;24.762;2023-03-23T04:58:18;99932.88;;;9.65;100.00
28630;BME280;15817;42.130;24.762;2023-03-23T05:00:59;99930.22;;;9.66;100.00
28630;BME280;15817;42.130;24.762;2023-03-23T05:03:26;99924.00;;;9.67;100.00
28630;BME280;15817;42.130;24.762;2023-03-23T05:06:35;99930.19;;;9.72;100.00
28630;BME280;15817;42.130;24.762;2023-03-23T05:09:15;99931.06;;;9.73;100.00
28630;BME280;15817;42.130;24.762;2023-03-23T05:15:02;99924.00;;;9.75;100.00
28630;BME280;15817;42.130;24.762;2023-03-23T05:17:40;99933.72;;;9.76;100.00
28630;BME280;15817;42.130;24.762;2023-03-23T05:20:32;99932.84;;;9.72;100.00
28630;BME280;15817;42.130;24.762;2023-03-23T05:23:34;99919.56;;;9.71;100.00
28630;BME280;15817;42.130;24.762;2023-03-23T05:26:40;99933.72;;;9.70;100.00
28630;BME280;15817;42.130;24.762;2023-03-23T05:29:21;99938.16;;;9.71;100.00
28630;BME280;15817;42.130;24.762;2023-03-23T05:31:58;99938.16;;;9.71;100.00
28630;BME280;15817;42.130;24.762;2023-03-23T05:35:04;99944.34;;;9.76;100.00
28630;BME280;15817;42.130;24.762;2023-03-23T05:37:33;99950.56;;;9.75;100.00
28630;BME280;15817;42.130;24.762;2023-03-23T05:40:10;99958.50;;;9.81;100.00
28630;BME280;15817;42.130;24.762;2023-03-23T05:42:55;99972.66;;;9.86;100.00
28630;BME280;15817;42.130;24.762;2023-03-23T05:45:50;99966.47;;;9.84;100.00
28630;BME280;15817;42.130;24.762;2023-03-23T05:48:16;99957.63;;;9.82;100.00
28630;BME280;15817;42.130;24.762;2023-03-23T05:50:43;99956.72;;;9.85;100.00
28630;BME280;15817;42.130;24.762;2023-03-23T05:53:28;99974.44;;;9.90;100.00
28630;BME280;15817;42.130;24.762;2023-03-23T05:56:01;99963.81;;;9.81;100.00
28630;BME280;15817;42.130;24.762;2023-03-23T05:58:46;99978.88;;;9.84;100.00
28630;BME280;15817;42.130;24.762;2023-03-23T06:04:27;99984.19;;;9.88;100.00
28630;BME280;15817;42.130;24.762;2023-03-23T06:07:14;99989.47;;;9.96;100.00
28630;BME280;15817;42.130;24.762;2023-03-23T06:09:56;99987.72;;;9.92;100.00
28630;BME280;15817;42.130;24.762;2023-03-23T06:12:25;99990.38;;;9.86;100.00
28630;BME280;15817;42.130;24.762;2023-03-23T06:15:11;100000.13;;;9.87;100.00
28630;BME280;15817;42.130;24.762;2023-03-23T06:18:48;100002.75;;;9.97;100.00
28630;BME280;15817;42.130;24.762;2023-03-23T06:21:38;99990.38;;;9.95;100.00
28630;BME280;15817;42.130;24.762;2023-03-23T06:24:27;99999.22;;;9.95;100.00
28630;BME280;15817;42.130;24.762;2023-03-23T06:26:53;99992.13;;;9.94;100.00
28630;BME280;15817;42.130;24.762;2023-03-23T06:29:22;99999.22;;;10.03;100.00
28630;BME280;15817;42.130;24.762;2023-03-23T06:32:23;99996.56;;;10.01;100.00
28630;BME280;15817;42.130;24.762;2023-03-23T06:35:11;99990.38;;;9.98;100.00
28630;BME280;15817;42.130;24.762;2023-03-23T06:38:36;100008.06;;;10.08;100.00
28630;BME280;15817;42.130;24.762;2023-03-23T06:41:12;100003.63;;;10.08;100.00
28630;BME280;15817;42.130;24.762;2023-03-23T06:46:45;100008.94;;;10.11;100.00
28630;BME280;15817;42.130;24.762;2023-03-23T06:49:32;100018.69;;;10.19;100.00
28630;BME280;15817;42.130;24.762;2023-03-23T06:52:29;100007.19;;;10.18;100.00
28630;BME280;15817;42.130;24.762;2023-03-23T06:55:01;100008.06;;;10.19;100.00
28630;BME280;15817;42.130;24.762;2023-03-23T06:57:29;100009.81;;;10.32;100.00
28630;BME280;15817;42.130;24.762;2023-03-23T07:00:01;100014.25;;;10.33;100.00
28630;BME280;15817;42.130;24.762;2023-03-23T07:02:42;100003.59;;;10.33;100.00
28630;BME280;15817;42.130;24.762;2023-03-23T07:05:12;100007.16;;;10.38;100.00
28630;BME280;15817;42.130;24.762;2023-03-23T07:07:44;100012.44;;;10.39;100.00
28630;BME280;15817;42.130;24.762;2023-03-23T07:10:52;100016.00;;;10.44;100.00
28630;BME280;15817;42.130;24.762;2023-03-23T07:13:36;100021.28;;;10.52;100.00
28630;BME280;15817;42.130;24.762;2023-03-23T07:16:07;100024.81;;;10.60;100.00
28630;BME280;15817;42.130;24.762;2023-03-23T07:18:37;100023.88;;;10.72;100.00
28630;BME280;15817;42.130;24.762;2023-03-23T07:21:05;100018.56;;;10.67;100.00
28630;BME280;15817;42.130;24.762;2023-03-23T07:23:31;100023.84;;;10.75;100.00
28630;BME280;15817;42.130;24.762;2023-03-23T07:26:10;100023.72;;;10.98;100.00
28630;BME280;15817;42.130;24.762;2023-03-23T07:28:53;100028.84;;;11.33;100.00
28630;BME280;15817;42.130;24.762;2023-03-23T07:32:00;100022.47;;;11.55;100.00
28630;BME280;15817;42.130;24.762;2023-03-23T07:34:47;100019.66;;;11.79;100.00
28630;BME280;15817;42.130;24.762;2023-03-23T07:37:44;100024.88;;;11.91;100.00
28630;BME280;15817;42.130;24.762;2023-03-23T07:40:27;100026.50;;;12.11;100.00
28630;BME280;15817;42.130;24.762;2023-03-23T07:43:03;100025.34;;;12.34;100.00
28630;BME280;15817;42.130;24.762;2023-03-23T07:45:52;100013.44;;;12.66;100.00
28630;BME280;15817;42.130;24.762;2023-03-23T07:48:23;100024.91;;;12.74;100.00
28630;BME280;15817;42.130;24.762;2023-03-23T07:50:52;100029.78;;;13.09;100.00
28630;BME280;15817;42.130;24.762;2023-03-23T07:53:23;100024.19;;;13.29;100.00
28630;BME280;15817;42.130;24.762;2023-03-23T07:56:07;100025.81;;;13.39;100.00
28630;BME280;15817;42.130;24.762;2023-03-23T07:59:03;100027.31;;;13.60;100.00
28630;BME280;15817;42.130;24.762;2023-03-23T08:01:40;100040.53;;;13.67;100.00
28630;BME280;15817;42.130;24.762;2023-03-23T08:04:44;100036.75;;;13.82;100.00
28630;BME280;15817;42.130;24.762;2023-03-23T08:07:12;100035.53;;;14.01;100.00
28630;BME280;15817;42.130;24.762;2023-03-23T08:10:17;100024.72;;;14.07;100.00
28630;BME280;15817;42.130;24.762;2023-03-23T08:12:58;100033.34;;;14.23;100.00
28630;BME280;15817;42.130;24.762;2023-03-23T08:15:43;100033.88;;;14.45;100.00
28630;BME280;15817;42.130;24.762;2023-03-23T08:18:33;100035.19;;;14.67;100.00
28630;BME280;15817;42.130;24.762;2023-03-23T08:21:24;100028.75;;;14.77;97.28
28630;BME280;15817;42.130;24.762;2023-03-23T08:24:33;100027.66;;;14.88;96.71
28630;BME280;15817;42.130;24.762;2023-03-23T08:27:24;100032.81;;;14.98;95.71
28630;BME280;15817;42.130;24.762;2023-03-23T08:30:44;100025.31;;;15.12;95.21
28630;BME280;15817;42.130;24.762;2023-03-23T08:33:24;100022.38;;;15.25;96.25
28630;BME280;15817;42.130;24.762;2023-03-23T08:36:13;100019.69;;;15.25;96.45
28630;BME280;15817;42.130;24.762;2023-03-23T08:39:06;100013.28;;;15.33;95.90
28630;BME280;15817;42.130;24.762;2023-03-23T08:41:51;100010.22;;;15.48;95.02
28630;BME280;15817;42.130;24.762;2023-03-23T08:44:25;100017.63;;;15.37;91.02
28630;BME280;15817;42.130;24.762;2023-03-23T08:50:41;100019.66;;;15.66;90.09
28630;BME280;15817;42.130;24.762;2023-03-23T08:53:12;100018.66;;;15.70;90.09
28630;BME280;15817;42.130;24.762;2023-03-23T08:55:53;100020.97;;;15.85;89.60
28630;BME280;15817;42.130;24.762;2023-03-23T08:58:41;100022.38;;;16.00;86.31
28630;BME280;15817;42.130;24.762;2023-03-23T09:01:35;100013.56;;;16.29;86.27
28630;BME280;15817;42.130;24.762;2023-03-23T09:04:17;100021.31;;;16.40;84.17
28630;BME280;15817;42.130;24.762;2023-03-23T09:07:21;100025.25;;;16.60;81.84
28630;BME280;15817;42.130;24.762;2023-03-23T09:09:51;100023.72;;;16.50;80.26
28630;BME280;15817;42.130;24.762;2023-03-23T09:12:24;100025.16;;;16.63;80.70
28630;BME280;15817;42.130;24.762;2023-03-23T09:14:50;100026.00;;;16.65;79.28
28630;BME280;15817;42.130;24.762;2023-03-23T09:17:16;100017.28;;;16.57;78.72
28630;BME280;15817;42.130;24.762;2023-03-23T09:19:44;100023.06;;;16.75;82.08
28630;BME280;15817;42.130;24.762;2023-03-23T09:22:14;100018.38;;;16.83;80.44
28630;BME280;15817;42.130;24.762;2023-03-23T09:24:41;100011.75;;;16.94;80.10
28630;BME280;15817;42.130;24.762;2023-03-23T09:27:07;100014.81;;;17.12;79.73
28630;BME280;15817;42.130;24.762;2023-03-23T09:29:33;100004.53;;;17.26;77.29
28630;BME280;15817;42.130;24.762;2023-03-23T09:31:59;100006.44;;;17.50;78.38
28630;BME280;15817;42.130;24.762;2023-03-23T09:34:28;100011.25;;;17.68;76.19
28630;BME280;15817;42.130;24.762;2023-03-23T09:36:55;100001.81;;;17.83;75.39
28630;BME280;15817;42.130;24.762;2023-03-23T09:39:24;100009.22;;;17.77;73.38
28630;BME280;15817;42.130;24.762;2023-03-23T09:42:18;100000.00;;;17.84;75.41
28630;BME280;15817;42.130;24.762;2023-03-23T09:45:07;99997.47;;;17.78;75.09
28630;BME280;15817;42.130;24.762;2023-03-23T09:51:28;100002.59;;;16.71;73.25
28630;BME280;15817;42.130;24.762;2023-03-23T09:55:01;99995.94;;;16.19;73.11
28630;BME280;15817;42.130;24.762;2023-03-23T10:01:14;99996.56;;;16.28;73.02
28630;BME280;15817;42.130;24.762;2023-03-23T10:03:58;99990.03;;;16.73;70.60
28630;BME280;15817;42.130;24.762;2023-03-23T10:06:33;99990.81;;;17.06;69.95
28630;BME280;15817;42.130;24.762;2023-03-23T10:09:08;99981.28;;;17.23;70.43
28630;BME280;15817;42.130;24.762;2023-03-23T10:15:54;99980.06;;;17.33;72.34
28630;BME280;15817;42.130;24.762;2023-03-23T10:21:16;99977.72;;;17.23;71.30
28630;BME280;15817;42.130;24.762;2023-03-23T10:24:07;99975.78;;;17.28;70.83
28630;BME280;15817;42.130;24.762;2023-03-23T10:36:01;99975.13;;;17.20;70.94
28630;BME280;15817;42.130;24.762;2023-03-23T10:41:38;99967.28;;;17.69;68.40
28630;BME280;15817;42.130;24.762;2023-03-23T10:44:20;99972.63;;;17.97;66.97
28630;BME280;15817;42.130;24.762;2023-03-23T10:47:08;99964.91;;;18.12;64.74
28630;BME280;15817;42.130;24.762;2023-03-23T10:50:01;99970.16;;;18.16;62.36
28630;BME280;15817;42.130;24.762;2023-03-23T10:53:14;99959.19;;;18.22;63.10
28630;BME280;15817;42.130;24.762;2023-03-23T10:55:48;99954.22;;;18.35;62.89
28630;BME280;15817;42.130;24.762;2023-03-23T10:58:33;99950.66;;;18.34;62.30
28630;BME280;15817;42.130;24.762;2023-03-23T11:01:10;99952.34;;;18.12;60.77
28630;BME280;15817;42.130;24.762;2023-03-23T11:04:10;99949.84;;;18.07;62.33
28630;BME280;15817;42.130;24.762;2023-03-23T11:09:52;99940.53;;;17.91;62.34
28630;BME280;15817;42.130;24.762;2023-03-23T11:12:35;99941.69;;;17.84;63.06
28630;BME280;15817;42.130;24.762;2023-03-23T11:18:01;99938.97;;;17.30;62.21
28630;BME280;15817;42.130;24.762;2023-03-23T11:20:28;99942.53;;;17.02;63.34
28630;BME280;15817;42.130;24.762;2023-03-23T11:23:00;99939.53;;;16.84;64.26
28630;BME280;15817;42.130;24.762;2023-03-23T11:25:29;99938.88;;;16.76;64.62
28630;BME280;15817;42.130;24.762;2023-03-23T11:28:08;99935.50;;;16.69;65.25
28630;BME280;15817;42.130;24.762;2023-03-23T11:30:37;99945.28;;;16.72;65.40
28630;BME280;15817;42.130;24.762;2023-03-23T11:33:03;99933.78;;;16.67;65.22
28630;BME280;15817;42.130;24.762;2023-03-23T11:35:29;99928.41;;;16.67;64.70
28630;BME280;15817;42.130;24.762;2023-03-23T11:38:04;99931.06;;;16.68;65.15
28630;BME280;15817;42.130;24.762;2023-03-23T11:40:47;99926.63;;;16.65;65.06
28630;BME280;15817;42.130;24.762;2023-03-23T11:43:44;99923.16;;;16.62;62.61
28630;BME280;15817;42.130;24.762;2023-03-23T11:52:16;99918.50;;;17.26;67.97
28630;BME280;15817;42.130;24.762;2023-03-23T11:54:55;99916.25;;;17.12;69.41
28630;BME280;15817;42.130;24.762;2023-03-23T11:57:33;99923.75;;;17.01;68.49
28630;BME280;15817;42.130;24.762;2023-03-23T11:59:59;99917.00;;;16.88;69.31
28630;BME280;15817;42.130;24.762;2023-03-23T12:03:04;99926.09;;;16.84;71.39
28630;BME280;15817;42.130;24.762;2023-03-23T12:06:01;99916.66;;;16.98;70.35
28630;BME280;15817;42.130;24.762;2023-03-23T12:20:38;99918.31;;;16.75;70.60
28630;BME280;15817;42.130;24.762;2023-03-23T12:23:38;99908.63;;;16.69;69.91
28630;BME280;15817;42.130;24.762;2023-03-23T12:29:47;99912.97;;;16.73;69.97
28630;BME280;15817;42.130;24.762;2023-03-23T12:48:29;99911.31;;;16.69;69.03
28630;BME280;15817;42.130;24.762;2023-03-23T12:51:08;99910.38;;;16.72;68.88
28630;BME280;15817;42.130;24.762;2023-03-23T12:53:58;99897.91;;;16.69;67.47
28630;BME280;15817;42.130;24.762;2023-03-23T12:56:58;99904.31;;;16.93;68.66
28630;BME280;15817;42.130;24.762;2023-03-23T13:03:35;99891.91;;;17.43;69.99
28630;BME280;15817;42.130;24.762;2023-03-23T13:09:32;99887.41;;;17.44;64.24
28630;BME280;15817;42.130;24.762;2023-03-23T13:12:12;99892.94;;;17.41;65.18
28630;BME280;15817;42.130;24.762;2023-03-23T13:24:18;99891.22;;;17.38;64.53
28630;BME280;15817;42.130;24.762;2023-03-23T13:26:56;99891.13;;;17.41;65.32
28630;BME280;15817;42.130;24.762;2023-03-23T13:29:27;99899.97;;;17.43;65.07
28630;BME280;15817;42.130;24.762;2023-03-23T13:32:19;99898.41;;;17.37;64.08
28630;BME280;15817;42.130;24.762;2023-03-23T13:34:48;99886.31;;;17.23;63.36
28630;BME280;15817;42.130;24.762;2023-03-23T13:40:44;99900.47;;;17.29;64.92
28630;BME280;15817;42.130;24.762;2023-03-23T13:43:25;99889.81;;;16.98;64.67
28630;BME280;15817;42.130;24.762;2023-03-23T13:49:03;99886.53;;;16.89;66.42
28630;BME280;15817;42.130;24.762;2023-03-23T14:00:08;99896.59;;;16.82;66.79
28630;BME280;15817;42.130;24.762;2023-03-23T14:02:45;99902.66;;;16.89;66.83
28630;BME280;15817;42.130;24.762;2023-03-23T14:11:20;99900.75;;;16.63;68.25
28630;BME280;15817;42.130;24.762;2023-03-23T14:16:40;99904.84;;;16.76;67.26
28630;BME280;15817;42.130;24.762;2023-03-23T14:19:27;99893.44;;;16.68;67.42
28630;BME280;15817;42.130;24.762;2023-03-23T14:22:02;99894.34;;;16.69;67.53
28630;BME280;15817;42.130;24.762;2023-03-23T14:24:42;99889.94;;;16.66;67.62
28630;BME280;15817;42.130;24.762;2023-03-23T14:27:37;99897.31;;;16.58;66.69
28630;BME280;15817;42.130;24.762;2023-03-23T14:30:17;99895.66;;;16.52;67.19
28630;BME280;15817;42.130;24.762;2023-03-23T14:33:03;99906.53;;;16.49;66.40
28630;BME280;15817;42.130;24.762;2023-03-23T14:35:44;99891.41;;;16.45;66.83
28630;BME280;15817;42.130;24.762;2023-03-23T14:38:28;99890.66;;;16.40;67.04
28630;BME280;15817;42.130;24.762;2023-03-23T14:41:24;99891.69;;;16.36;66.41
28630;BME280;15817;42.130;24.762;2023-03-23T14:44:23;99901.56;;;16.36;66.73
28630;BME280;15817;42.130;24.762;2023-03-23T14:47:01;99896.25;;;16.33;66.62
28630;BME280;15817;42.130;24.762;2023-03-23T14:49:40;99908.66;;;16.38;65.34
28630;BME280;15817;42.130;24.762;2023-03-23T14:52:27;99887.28;;;16.34;65.88
28630;BME280;15817;42.130;24.762;2023-03-23T14:55:13;99891.09;;;16.26;65.95
28630;BME280;15817;42.130;24.762;2023-03-23T14:57:58;99877.81;;;16.20;65.84
28630;BME280;15817;42.130;24.762;2023-03-23T15:00:49;99879.81;;;16.14;66.10
28630;BME280;15817;42.130;24.762;2023-03-23T15:03:30;99877.25;;;16.09;65.59
28630;BME280;15817;42.130;24.762;2023-03-23T15:08:58;99880.63;;;16.16;66.88
28630;BME280;15817;42.130;24.762;2023-03-23T15:12:20;99872.53;;;16.17;67.29
28630;BME280;15817;42.130;24.762;2023-03-23T15:17:51;99890.56;;;16.14;65.96
28630;BME280;15817;42.130;24.762;2023-03-23T15:20:26;99886.94;;;16.15;65.13
28630;BME280;15817;42.130;24.762;2023-03-23T15:23:17;99875.44;;;16.10;66.31
28630;BME280;15817;42.130;24.762;2023-03-23T15:25:50;99882.56;;;16.11;65.73
28630;BME280;15817;42.130;24.762;2023-03-23T15:28:32;99876.50;;;16.35;73.68
28630;BME280;15817;42.130;24.762;2023-03-23T15:31:04;99881.59;;;16.44;66.44
28630;BME280;15817;42.130;24.762;2023-03-23T15:33:39;99884.56;;;16.35;67.05
28630;BME280;15817;42.130;24.762;2023-03-23T15:36:17;99877.19;;;16.12;67.30
28630;BME280;15817;42.130;24.762;2023-03-23T15:38:48;99882.63;;;16.09;67.59
28630;BME280;15817;42.130;24.762;2023-03-23T15:41:24;99887.31;;;16.01;67.65
28630;BME280;15817;42.130;24.762;2023-03-23T15:43:56;99880.38;;;15.92;68.85
28630;BME280;15817;42.130;24.762;2023-03-23T15:46:29;99892.09;;;15.90;70.02
28630;BME280;15817;42.130;24.762;2023-03-23T15:49:11;99895.75;;;15.87;70.50
28630;BME280;15817;42.130;24.762;2023-03-23T15:52:06;99888.66;;;15.85;71.87
28630;BME280;15817;42.130;24.762;2023-03-23T15:54:34;99885.97;;;15.85;70.98
28630;BME280;15817;42.130;24.762;2023-03-23T15:57:13;99888.09;;;15.72;70.89
28630;BME280;15817;42.130;24.762;2023-03-23T15:59:38;99892.59;;;15.72;71.93
28630;BME280;15817;42.130;24.762;2023-03-23T16:02:24;99895.41;;;15.67;71.69
28630;BME280;15817;42.130;24.762;2023-03-23T16:05:21;99899.03;;;15.65;71.09
28630;BME280;15817;42.130;24.762;2023-03-23T16:07:59;99905.25;;;15.67;72.01
28630;BME280;15817;42.130;24.762;2023-03-23T16:10:28;99903.56;;;15.63;73.13
28630;BME280;15817;42.130;24.762;2023-03-23T16:36:47;99926.56;;;14.97;77.52
28630;BME280;15817;42.130;24.762;2023-03-23T16:57:22;99925.25;;;14.76;76.86
28630;BME280;15817;42.130;24.762;2023-03-23T17:00:12;99917.31;;;14.72;77.59
28630;BME280;15817;42.130;24.762;2023-03-23T17:13:44;99946.78;;;14.72;77.62
28630;BME280;15817;42.130;24.762;2023-03-23T17:16:42;99937.06;;;14.66;77.68
28630;BME280;15817;42.130;24.762;2023-03-23T17:26:20;99945.97;;;14.67;77.51
28630;BME280;15817;42.130;24.762;2023-03-23T17:32:40;99944.63;;;14.46;78.04
28630;BME280;15817;42.130;24.762;2023-03-23T17:35:30;99948.34;;;14.37;78.31
28630;BME280;15817;42.130;24.762;2023-03-23T17:38:53;99955.44;;;14.41;79.14
28630;BME280;15817;42.130;24.762;2023-03-23T17:47:52;99968.06;;;14.32;80.88
28630;BME280;15817;42.130;24.762;2023-03-23T17:54:38;99981.53;;;14.29;81.45
28630;BME280;15817;42.130;24.762;2023-03-23T17:57:59;99978.94;;;14.24;81.48
28630;BME280;15817;42.130;24.762;2023-03-23T18:03:24;99991.38;;;14.27;81.57
28630;BME280;15817;42.130;24.762;2023-03-23T18:06:14;100006.53;;;14.28;81.23
28630;BME280;15817;42.130;24.762;2023-03-23T18:09:11;99990.59;;;14.20;81.67
28630;BME280;15817;42.130;24.762;2023-03-23T18:15:02;100009.41;;;14.17;81.85
28630;BME280;15817;42.130;24.762;2023-03-23T18:17:38;100011.25;;;14.12;82.05
28630;BME280;15817;42.130;24.762;2023-03-23T18:28:15;100025.72;;;14.00;82.55
28630;BME280;15817;42.130;24.762;2023-03-23T18:31:16;100031.13;;;13.97;82.49
28630;BME280;15817;42.130;24.762;2023-03-23T18:34:02;100025.16;;;13.83;82.00
28630;BME280;15817;42.130;24.762;2023-03-23T18:36:34;100019.81;;;13.83;82.79
28630;BME280;15817;42.130;24.762;2023-03-23T18:39:27;100033.97;;;13.87;82.70
28630;BME280;15817;42.130;24.762;2023-03-23T18:42:42;100029.59;;;13.84;82.72
28630;BME280;15817;42.130;24.762;2023-03-23T18:51:59;100043.00;;;13.81;83.50
28630;BME280;15817;42.130;24.762;2023-03-23T18:54:36;100037.69;;;13.80;83.48
28630;BME280;15817;42.130;24.762;2023-03-23T19:08:41;100045.13;;;13.59;84.22
28630;BME280;15817;42.130;24.762;2023-03-23T19:11:59;100066.38;;;13.67;84.55
28630;BME280;15817;42.130;24.762;2023-03-23T19:22:12;100059.56;;;13.48;85.83
28630;BME280;15817;42.130;24.762;2023-03-23T19:25:20;100048.03;;;13.43;86.12
28630;BME280;15817;42.130;24.762;2023-03-23T19:28:18;100053.41;;;13.39;86.46
28630;BME280;15817;42.130;24.762;2023-03-23T19:35:30;100060.63;;;13.34;87.69
28630;BME280;15817;42.130;24.762;2023-03-23T19:42:04;100061.81;;;13.15;88.99
28630;BME280;15817;42.130;24.762;2023-03-23T20:02:52;100080.72;;;12.94;90.15
28630;BME280;15817;42.130;24.762;2023-03-23T20:06:14;100080.81;;;12.86;90.49
28630;BME280;15817;42.130;24.762;2023-03-23T20:08:54;100082.63;;;12.81;90.53
28630;BME280;15817;42.130;24.762;2023-03-23T20:14:37;100090.69;;;12.80;91.29
28630;BME280;15817;42.130;24.762;2023-03-23T20:17:11;100087.13;;;12.79;91.43
28630;BME280;15817;42.130;24.762;2023-03-23T20:19:45;100085.34;;;12.80;91.63
28630;BME280;15817;42.130;24.762;2023-03-23T20:26:24;100109.44;;;12.72;92.22
28630;BME280;15817;42.130;24.762;2023-03-23T20:28:56;100106.81;;;12.69;92.59
28630;BME280;15817;42.130;24.762;2023-03-23T20:31:33;100113.00;;;12.69;92.88
28630;BME280;15817;42.130;24.762;2023-03-23T20:34:07;100108.63;;;12.65;92.77
28630;BME280;15817;42.130;24.762;2023-03-23T20:37:07;100103.31;;;12.61;93.10
28630;BME280;15817;42.130;24.762;2023-03-23T20:39:43;100117.56;;;12.60;93.35
28630;BME280;15817;42.130;24.762;2023-03-23T20:42:13;100102.50;;;12.57;93.82
28630;BME280;15817;42.130;24.762;2023-03-23T20:44:39;100130.91;;;12.60;94.05
28630;BME280;15817;42.130;24.762;2023-03-23T20:47:06;100131.88;;;12.56;94.27
28630;BME280;15817;42.130;24.762;2023-03-23T20:49:37;100115.97;;;12.42;94.63
28630;BME280;15817;42.130;24.762;2023-03-23T20:52:10;100115.09;;;12.42;95.02
28630;BME280;15817;42.130;24.762;2023-03-23T20:54:39;100119.56;;;12.37;95.83
28630;BME280;15817;42.130;24.762;2023-03-23T20:57:39;100116.97;;;12.33;96.04
28630;BME280;15817;42.130;24.762;2023-03-23T21:00:51;100116.91;;;12.35;95.77
28630;BME280;15817;42.130;24.762;2023-03-23T21:04:25;100125.84;;;12.32;95.79
28630;BME280;15817;42.130;24.762;2023-03-23T21:07:22;100124.09;;;12.28;96.30
28630;BME280;15817;42.130;24.762;2023-03-23T21:09:57;100125.00;;;12.29;96.32
28630;BME280;15817;42.130;24.762;2023-03-23T21:12:28;100132.97;;;12.30;96.68
28630;BME280;15817;42.130;24.762;2023-03-23T21:14:57;100132.97;;;12.30;96.49
28630;BME280;15817;42.130;24.762;2023-03-23T21:17:23;100127.69;;;12.24;96.54
28630;BME280;15817;42.130;24.762;2023-03-23T21:19:49;100146.31;;;12.29;96.99
28630;BME280;15817;42.130;24.762;2023-03-23T21:22:17;100130.38;;;12.23;96.96
28630;BME280;15817;42.130;24.762;2023-03-23T21:24:47;100133.06;;;12.18;97.05
28630;BME280;15817;42.130;24.762;2023-03-23T21:27:19;100133.97;;;12.16;97.34
28630;BME280;15817;42.130;24.762;2023-03-23T21:29:57;100129.53;;;12.18;97.44
28630;BME280;15817;42.130;24.762;2023-03-23T21:32:25;100110.00;;;12.13;97.51
28630;BME280;15817;42.130;24.762;2023-03-23T21:34:51;100118.94;;;12.10;97.68
28630;BME280;15817;42.130;24.762;2023-03-23T21:37:21;100119.84;;;12.09;97.90
28630;BME280;15817;42.130;24.762;2023-03-23T21:40:20;100130.50;;;12.08;97.85
28630;BME280;15817;42.130;24.762;2023-03-23T21:45:50;100120.72;;;12.11;98.01
28630;BME280;15817;42.130;24.762;2023-03-23T21:48:46;100110.09;;;12.04;97.81
28630;BME280;15817;42.130;24.762;2023-03-23T21:55:06;100110.09;;;12.02;98.06
28630;BME280;15817;42.130;24.762;2023-03-23T21:57:34;100118.09;;;12.01;98.02
28630;BME280;15817;42.130;24.762;2023-03-23T22:00:07;100122.59;;;11.95;97.58
28630;BME280;15817;42.130;24.762;2023-03-23T22:02:37;100125.28;;;11.92;98.21
28630;BME280;15817;42.130;24.762;2023-03-23T22:05:03;100130.66;;;11.88;98.45
28630;BME280;15817;42.130;24.762;2023-03-23T22:07:29;100125.34;;;11.82;98.75
28630;BME280;15817;42.130;24.762;2023-03-23T22:10:05;100118.25;;;11.79;98.92
28630;BME280;15817;42.130;24.762;2023-03-23T22:12:36;100116.47;;;11.81;99.04
28630;BME280;15817;42.130;24.762;2023-03-23T22:15:08;100118.25;;;11.84;98.50
28630;BME280;15817;42.130;24.762;2023-03-23T22:17:37;100113.81;;;11.81;98.85
28630;BME280;15817;42.130;24.762;2023-03-23T22:20:08;100109.38;;;11.77;98.84